Time;durP1;ratioP1;P1;durP2;ratioP2;P2;SDS_P1;SDS_P2;PMS_P1;PMS_P2;Temp;Humidity;BMP_temperature;BMP_pressure;BME280_temperature;BME280_humidity;BME280_pressure;Samples;Min_cycle;Max_cycle;Signal;HPM_P1;HPM_P2
2023/04/25 00:01:47;;;;;;;19.83;6.40;;;5.80;99.90;;;-144.05;69.70;56950.78;5098277;28;20027;-83
2023/04/25 00:04:13;;;;;;;17.63;6.32;;;5.80;99.90;;;-144.05;69.67;56976.28;5096278;28;20455;-83
2023/04/25 00:06:40;;;;;;;18.38;6.97;;;5.90;99.90;;;-144.05;69.20;56965.66;5096978;28;20038;-83
2023/04/25 00:09:10;;;;;;;15.23;5.32;;;5.90;99.90;;;-144.05;69.27;56957.16;5115001;28;20080;-83
2023/04/25 00:11:37;;;;;;;14.15;5.80;;;6.00;99.90;;;-144.05;69.16;56974.16;5096749;28;20028;-83
2023/04/25 00:14:04;;;;;;;18.73;7.47;;;6.00;99.90;;;-144.05;69.31;56965.66;5114746;28;20031;-83
2023/04/25 00:16:33;;;;;;;19.17;6.10;;;6.00;99.90;;;-144.05;69.06;56959.28;5096713;28;20445;-83
2023/04/25 00:19:01;;;;;;;14.82;6.30;;;6.10;99.90;;;-144.05;69.02;56976.28;5096566;28;20038;-82
2023/04/25 00:21:28;;;;;;;20.60;6.20;;;6.10;99.90;;;-144.05;68.80;56923.19;5114652;28;20494;-86
2023/04/25 00:23:55;;;;;;;16.45;7.03;;;6.20;99.90;;;-144.05;68.85;56967.78;5096653;28;20440;-84
2023/04/25 00:26:21;;;;;;;18.95;6.35;;;6.30;99.90;;;-144.05;68.74;56972.03;5096556;28;20034;-82
2023/04/25 00:28:48;;;;;;;18.95;5.40;;;6.20;99.90;;;-144.05;68.43;56974.16;5113301;28;20024;-83
2023/04/25 00:31:14;;;;;;;14.35;5.72;;;6.30;99.90;;;-144.05;68.60;56961.41;5096254;28;20027;-84
2023/04/25 00:33:40;;;;;;;21.73;5.82;;;6.30;99.90;;;-144.05;68.40;56963.53;5096738;28;20019;-82
2023/04/25 00:36:07;;;;;;;13.13;5.97;;;6.40;99.90;;;-144.05;68.10;56969.91;5096616;28;20398;-83
2023/04/25 00:38:33;;;;;;;16.05;6.68;;;6.40;99.90;;;-144.05;68.14;56944.41;5096813;28;20063;-83
2023/04/25 00:40:59;;;;;;;11.38;6.65;;;6.40;99.90;;;-144.05;68.31;56961.41;5096903;28;20063;-84
2023/04/25 00:43:32;;;;;;;25.23;7.28;;;6.40;99.90;;;-144.05;68.13;56933.78;5098207;28;20020;-85
2023/04/25 00:46:01;;;;;;;17.20;7.72;;;6.40;99.90;;;-144.05;68.71;56948.66;5118714;28;20024;-85
2023/04/25 00:48:27;;;;;;;21.13;7.20;;;6.50;99.90;;;-144.05;68.49;56935.91;5126218;28;20042;-81
2023/04/25 00:50:58;;;;;;;18.20;7.22;;;6.50;99.90;;;-144.05;68.25;56950.78;5121419;28;20057;-80
2023/04/25 00:53:28;;;;;;;16.80;7.03;;;6.50;99.90;;;-144.05;68.60;56938.03;5120392;28;20031;-84
2023/04/25 00:55:55;;;;;;;8.57;6.40;;;6.60;99.90;;;-144.05;68.26;56955.03;5096683;28;20115;-83
2023/04/25 00:58:22;;;;;;;16.45;7.18;;;6.60;99.90;;;-144.05;68.15;56976.28;5114325;28;20019;-84
2023/04/25 01:00:52;;;;;;;19.08;7.65;;;6.60;99.90;;;-144.05;68.74;56963.53;5113958;28;20421;-83
2023/04/25 01:03:19;;;;;;;18.02;7.60;;;6.60;99.90;;;-144.05;68.75;56957.16;5095579;28;20047;-84
2023/04/25 01:05:50;;;;;;;15.73;7.10;;;6.60;99.90;;;-144.05;68.47;56950.78;5113871;28;20042;-83
2023/04/25 01:08:16;;;;;;;13.32;6.30;;;6.60;99.90;;;-144.05;68.17;56931.66;5095406;28;20038;-84
2023/04/25 01:10:42;;;;;;;13.57;6.68;;;6.60;99.90;;;-144.05;68.41;56944.41;5095191;28;20027;-83
2023/04/25 01:13:08;;;;;;;12.55;6.03;;;6.60;99.90;;;-144.05;68.92;56967.78;5095864;28;20523;-85
2023/04/25 01:15:35;;;;;;;13.13;7.00;;;6.60;99.90;;;-144.05;68.81;56933.78;5099368;28;20471;-85
2023/04/25 01:18:03;;;;;;;13.93;7.20;;;6.60;99.90;;;-144.05;68.97;56965.66;5100685;28;20542;-83
2023/04/25 01:20:32;;;;;;;14.57;6.43;;;6.60;99.90;;;-144.05;68.86;56946.53;5101745;28;20020;-87
2023/04/25 01:22:58;;;;;;;17.27;7.22;;;6.60;99.90;;;-144.05;69.50;56948.66;5123962;28;20023;-82
2023/04/25 01:25:24;;;;;;;18.83;6.95;;;6.60;99.90;;;-144.05;68.82;56946.53;5108699;28;20028;-83
2023/04/25 01:27:51;;;;;;;11.73;6.72;;;6.60;99.90;;;-144.05;68.99;56944.41;5098315;28;20027;-84
2023/04/25 01:30:21;;;;;;;11.82;6.35;;;6.70;99.90;;;-144.05;69.04;56948.66;5095242;28;20035;-85
2023/04/25 01:32:49;;;;;;;17.80;6.72;;;6.70;99.90;;;-144.05;69.31;56940.16;5113559;28;20043;-83
2023/04/25 01:35:15;;;;;;;11.25;7.03;;;6.70;99.90;;;-144.05;69.57;56946.53;5095195;28;20084;-86
2023/04/25 01:37:43;;;;;;;18.73;7.10;;;6.60;99.90;;;-144.05;70.27;56963.53;5094917;28;20023;-84
2023/04/25 01:40:12;;;;;;;14.50;6.35;;;6.60;99.90;;;-144.05;70.82;56940.16;5095224;28;20115;-84
2023/04/25 01:42:43;;;;;;;12.50;7.53;;;6.60;99.90;;;-144.05;71.46;56933.78;5113573;28;20563;-84
2023/04/25 01:45:11;;;;;;;15.10;6.63;;;6.60;99.90;;;-144.05;73.03;56961.41;5115862;28;20032;-85
2023/04/25 01:47:39;;;;;;;11.48;6.68;;;6.60;99.90;;;-144.05;73.42;56944.41;5100155;28;20027;-84
2023/04/25 01:50:08;;;;;;;12.50;7.40;;;6.60;99.90;;;-144.05;74.28;56940.16;5100176;28;20061;-83
2023/04/25 01:52:34;;;;;;;18.67;7.43;;;6.50;99.90;;;-144.05;75.83;56940.16;5115334;28;20077;-81
2023/04/25 01:55:03;;;;;;;14.65;7.63;;;6.50;99.90;;;-144.05;76.19;56959.28;5096975;28;20027;-82
2023/04/25 01:57:29;;;;;;;16.10;7.13;;;6.40;99.90;;;-144.05;76.04;56961.41;5095850;28;20024;-81
2023/04/25 02:00:05;;;;;;;18.40;8.00;;;6.40;99.90;;;-144.05;76.60;56948.66;5094836;28;20119;-83
2023/04/25 02:02:31;;;;;;;17.63;8.40;;;6.40;99.90;;;-144.05;77.37;56961.41;5111476;28;20031;-83
2023/04/25 02:04:57;;;;;;;17.40;9.02;;;6.40;99.90;;;-144.05;77.36;56952.91;5095111;28;20118;-83
2023/04/25 02:07:23;;;;;;;20.25;8.45;;;6.30;99.90;;;-144.05;77.51;56942.28;5095953;28;20028;-83
2023/04/25 02:09:49;;;;;;;22.85;8.95;;;6.30;99.90;;;-144.05;77.99;56938.03;5095590;28;20043;-85
2023/04/25 02:12:15;;;;;;;18.15;8.20;;;6.20;99.90;;;-144.05;78.28;56957.16;5095080;28;20024;-83
2023/04/25 02:14:44;;;;;;;18.88;8.57;;;6.30;99.90;;;-144.05;78.31;56946.53;5094092;28;20377;-84
2023/04/25 02:17:10;;;;;;;17.55;8.57;;;6.30;99.90;;;-144.05;77.96;56942.28;5093469;28;20386;-85
2023/04/25 02:19:39;;;;;;;15.55;8.05;;;6.20;99.90;;;-144.05;78.43;56938.03;5093247;28;20031;-83
2023/04/25 02:22:05;;;;;;;13.93;8.27;;;6.20;99.90;;;-144.05;78.02;56942.28;5093104;28;20035;-81
2023/04/25 02:24:31;;;;;;;20.33;9.20;;;6.20;99.90;;;-144.05;78.08;56942.28;5093396;28;20061;-83
2023/04/25 02:26:57;;;;;;;20.25;8.63;;;6.30;99.90;;;-144.05;78.42;56984.78;5094206;28;20483;-86
2023/04/25 02:29:23;;;;;;;18.88;9.48;;;6.30;99.90;;;-144.05;78.43;56967.78;5095740;28;20453;-86
2023/04/25 02:31:49;;;;;;;20.13;9.38;;;6.40;99.90;;;-144.05;78.38;56993.25;5093873;28;20027;-83
2023/04/25 02:34:15;;;;;;;27.77;10.50;;;6.30;99.90;;;-144.05;78.13;56950.78;5111542;28;20129;-83
2023/04/25 02:36:41;;;;;;;21.40;10.18;;;6.30;99.90;;;-144.05;77.91;56948.66;5093091;28;20028;-82
2023/04/25 02:39:07;;;;;;;19.90;9.98;;;6.30;99.90;;;-144.05;77.84;56959.28;5093000;28;20464;-81
2023/04/25 02:41:33;;;;;;;25.38;11.45;;;6.30;99.90;;;-144.05;77.64;56957.16;5093069;28;20070;-85
2023/04/25 02:43:59;;;;;;;29.50;12.75;;;6.30;99.90;;;-144.05;77.08;56942.28;5093477;28;20031;-83
2023/04/25 02:46:24;;;;;;;27.83;12.65;;;6.30;99.90;;;-144.05;77.14;56935.91;5111449;28;20097;-83
2023/04/25 02:48:50;;;;;;;26.00;13.60;;;6.30;99.90;;;-144.05;76.96;56931.66;5093764;28;20417;-85
2023/04/25 02:51:16;;;;;;;24.77;13.95;;;6.40;99.90;;;-144.05;76.82;56942.28;5094841;28;20103;-83
2023/04/25 02:53:44;;;;;;;28.35;14.23;;;6.40;99.90;;;-144.05;76.61;56948.66;5100461;28;20118;-81
2023/04/25 02:56:10;;;;;;;22.95;11.68;;;6.30;99.90;;;-144.05;76.72;56967.78;5118078;28;20028;-78
2023/04/25 02:58:35;;;;;;;23.08;12.02;;;6.30;99.90;;;-144.05;76.78;56950.78;5097492;28;20092;-82
2023/04/25 03:01:01;;;;;;;22.42;11.98;;;6.30;99.90;;;-144.05;76.88;56944.41;5092384;28;20491;-83
2023/04/25 03:03:27;;;;;;;24.45;12.45;;;6.30;99.90;;;-144.05;76.79;56961.41;5092883;28;20118;-83
2023/04/25 03:05:53;;;;;;;18.30;11.48;;;6.40;99.90;;;-144.05;76.51;56959.28;5092838;28;20548;-84
2023/04/25 03:08:19;;;;;;;23.58;12.40;;;6.30;99.90;;;-144.05;76.44;56916.81;5092515;28;20038;-84
2023/04/25 03:10:45;;;;;;;23.38;10.93;;;6.30;99.90;;;-144.05;76.66;56946.53;5092437;28;20026;-83
2023/04/25 03:13:11;;;;;;;27.67;11.18;;;6.30;99.90;;;-144.05;77.14;56940.16;5055635;28;1148334;-83
2023/04/25 03:15:39;;;;;;;20.67;9.90;;;6.30;99.90;;;-144.05;76.86;56957.16;5097410;28;20027;-83
2023/04/25 03:18:05;;;;;;;23.63;10.27;;;6.40;99.90;;;-144.05;76.89;56948.66;5115625;28;20059;-83
2023/04/25 03:20:31;;;;;;;29.40;10.18;;;6.20;99.90;;;-144.05;76.98;56950.78;5097272;28;20061;-81
2023/04/25 03:22:57;;;;;;;19.05;10.25;;;6.30;99.90;;;-144.05;77.14;56959.28;5097357;28;20032;-83
2023/04/25 03:25:23;;;;;;;21.15;9.82;;;6.30;99.90;;;-144.05;76.89;56946.53;5097538;28;20023;-84
2023/04/25 03:27:49;;;;;;;17.35;8.45;;;6.20;99.90;;;-144.05;77.01;56944.41;5115985;28;20035;-84
2023/04/25 03:30:15;;;;;;;18.15;8.80;;;6.20;99.90;;;-144.05;76.94;56959.28;5114450;28;20035;-83
2023/04/25 03:32:41;;;;;;;16.25;7.75;;;6.20;99.90;;;-144.05;76.79;56933.78;5097613;28;20080;-81
2023/04/25 03:35:07;;;;;;;22.95;10.85;;;6.20;99.90;;;-144.05;76.99;56952.91;5097586;28;20124;-82
2023/04/25 03:37:33;;;;;;;21.50;9.02;;;6.20;99.90;;;-144.05;76.92;56955.03;5115601;28;20031;-83
2023/04/25 03:39:59;;;;;;;21.00;8.80;;;6.20;99.90;;;-144.05;76.71;56933.78;5097644;28;20028;-83
2023/04/25 03:42:25;;;;;;;18.15;9.05;;;6.20;99.90;;;-144.05;76.90;56967.78;5097350;28;20035;-81
2023/04/25 03:44:51;;;;;;;28.50;9.50;;;6.20;99.90;;;-144.05;77.08;56963.53;5097405;28;20415;-84
2023/04/25 03:47:17;;;;;;;20.77;9.18;;;6.10;99.90;;;-144.05;76.96;56963.53;5097130;28;20034;-85
2023/04/25 03:49:44;;;;;;;18.48;8.73;;;6.10;99.90;;;-144.05;76.74;56957.16;5096789;28;20425;-83
2023/04/25 03:52:10;;;;;;;24.63;8.60;;;6.10;99.90;;;-144.05;76.99;56957.16;5097011;28;20031;-83
2023/04/25 03:54:36;;;;;;;19.55;8.05;;;6.20;99.90;;;-144.05;77.11;56952.91;5097017;28;20332;-83
2023/04/25 03:57:02;;;;;;;23.40;9.05;;;6.10;99.90;;;-144.05;77.33;56950.78;5096810;28;20039;-83
2023/04/25 03:59:28;;;;;;;23.17;9.55;;;6.10;99.90;;;-144.05;77.14;56955.03;5096835;28;20038;-83
2023/04/25 04:01:54;;;;;;;27.50;9.07;;;6.20;99.90;;;-144.05;77.41;56955.03;5096989;28;20024;-84
2023/04/25 04:04:20;;;;;;;19.10;9.52;;;6.10;99.90;;;-144.05;77.37;56946.53;5096704;28;20027;-84
2023/04/25 04:06:46;;;;;;;20.17;10.13;;;6.10;99.90;;;-144.05;77.69;56961.41;5096769;28;20024;-83
2023/04/25 04:09:12;;;;;;;22.23;9.77;;;6.10;99.90;;;-144.05;77.47;56957.16;5096700;28;20024;-82
2023/04/25 04:11:39;;;;;;;22.02;9.43;;;6.10;99.90;;;-144.05;77.50;56961.41;5114911;28;20024;-83
2023/04/25 04:14:07;;;;;;;17.20;7.85;;;6.10;99.90;;;-144.05;77.87;56957.16;5113593;28;20119;-84
2023/04/25 04:16:33;;;;;;;12.85;5.40;;;6.10;99.90;;;-144.05;77.50;56963.53;5096624;28;20395;-84
2023/04/25 04:18:59;;;;;;;10.63;3.47;;;5.90;99.90;;;-144.05;76.66;56986.91;5096905;28;20038;-84
2023/04/25 04:21:27;;;;;;;9.70;3.17;;;5.60;99.90;;;-144.05;75.83;56955.03;5096367;28;20024;-82
2023/04/25 04:23:54;;;;;;;9.10;3.03;;;5.40;99.90;;;-144.05;75.31;56938.03;5113168;28;20023;-83
2023/04/25 04:26:23;;;;;;;9.05;2.80;;;5.30;99.90;;;-144.05;75.40;56957.16;5096237;28;20028;-83
2023/04/25 04:28:51;;;;;;;9.63;2.90;;;5.20;99.90;;;-144.05;75.57;56963.53;5096539;28;20495;-81
2023/04/25 04:31:19;;;;;;;11.07;3.95;;;5.10;99.90;;;-144.05;75.72;56955.03;5096031;28;20023;-84
2023/04/25 04:33:46;;;;;;;16.48;4.68;;;5.10;99.90;;;-144.05;75.94;56965.66;5095844;28;20034;-83
2023/04/25 04:36:12;;;;;;;18.00;4.45;;;5.10;99.90;;;-144.05;76.06;56963.53;5114212;28;20504;-81
2023/04/25 04:38:40;;;;;;;17.38;4.85;;;5.10;99.90;;;-144.05;76.12;56957.16;5097749;28;20115;-81
2023/04/25 04:41:07;;;;;;;14.80;4.32;;;5.10;99.90;;;-144.05;76.36;56961.41;5099243;28;20463;-82
2023/04/25 04:43:33;;;;;;;14.57;4.45;;;5.10;99.90;;;-144.05;76.52;56938.03;5099330;28;20034;-81
2023/04/25 04:46:05;;;;;;;22.63;5.10;;;5.10;99.90;;;-144.05;76.65;56963.53;5098712;28;20130;-82
2023/04/25 04:48:34;;;;;;;19.42;6.47;;;5.10;99.90;;;-144.05;76.57;56955.03;5098963;28;20062;-83
2023/04/25 04:51:01;;;;;;;15.55;5.18;;;5.10;99.90;;;-144.05;76.63;56974.16;5097858;28;20360;-82
2023/04/25 04:53:27;;;;;;;24.27;5.70;;;5.00;99.90;;;-144.05;76.84;56984.78;5098092;28;20318;-84
2023/04/25 04:55:54;;;;;;;35.17;6.28;;;5.10;99.90;;;-144.05;76.92;56967.78;5098334;28;20046;-84
2023/04/25 04:58:20;;;;;;;17.58;5.40;;;5.00;99.90;;;-144.05;77.11;56946.53;5100361;28;20115;-84
2023/04/25 05:00:46;;;;;;;16.63;4.65;;;5.10;99.90;;;-144.05;76.96;56980.53;5117720;28;20055;-84
2023/04/25 05:03:12;;;;;;;14.00;4.25;;;5.00;99.90;;;-144.05;77.15;56972.03;5101876;28;20398;-83
2023/04/25 05:05:39;;;;;;;15.50;5.10;;;5.00;99.90;;;-144.05;77.05;56965.66;5098905;28;20028;-82
2023/04/25 05:08:06;;;;;;;13.85;4.95;;;5.00;99.90;;;-144.05;77.34;56944.41;5100133;28;20448;-84
2023/04/25 05:10:32;;;;;;;16.02;4.43;;;5.00;99.90;;;-144.05;77.19;56955.03;5100947;28;20019;-83
2023/04/25 05:12:58;;;;;;;16.77;3.83;;;5.10;99.90;;;-144.05;77.62;56976.28;5099933;28;20023;-84
2023/04/25 05:15:24;;;;;;;15.07;4.78;;;5.20;99.90;;;-144.05;77.23;56955.03;5100187;28;20105;-83
2023/04/25 05:17:50;;;;;;;16.80;4.93;;;5.20;99.90;;;-144.05;77.16;56959.28;5099768;28;20058;-85
2023/04/25 05:20:18;;;;;;;16.50;4.90;;;5.30;99.90;;;-144.05;76.90;56948.66;5100580;28;20032;-83
2023/04/25 05:22:45;;;;;;;21.20;5.45;;;5.40;99.90;;;-144.05;76.97;56972.03;5099576;28;20024;-83
2023/04/25 05:25:11;;;;;;;19.02;5.07;;;5.30;99.90;;;-144.05;76.57;56946.53;5099710;28;20093;-84
2023/04/25 05:27:37;;;;;;;18.05;5.25;;;5.30;99.90;;;-144.05;76.42;56963.53;5099397;28;20456;-82
2023/04/25 05:30:05;;;;;;;16.90;5.45;;;5.30;99.90;;;-144.05;75.80;56955.03;5099510;28;20034;-82
2023/04/25 05:32:31;;;;;;;25.13;5.18;;;5.40;99.90;;;-144.05;75.94;56950.78;5100361;28;20035;-84
2023/04/25 05:34:57;;;;;;;16.08;4.43;;;5.50;99.90;;;-144.05;75.90;56967.78;5099319;28;20024;-83
2023/04/25 05:37:23;;;;;;;19.65;4.57;;;5.60;99.90;;;-144.05;75.92;56948.66;5099515;28;20015;-82
2023/04/25 05:39:48;;;;;;;13.60;4.22;;;5.60;99.90;;;-144.05;75.95;56955.03;5098486;28;20024;-82
2023/04/25 05:42:15;;;;;;;17.02;5.32;;;5.70;99.90;;;-144.05;75.10;56961.41;5114306;28;20080;-84
2023/04/25 05:44:41;;;;;;;17.17;5.07;;;5.80;99.90;;;-144.05;74.53;56959.28;5097892;28;20066;-83
2023/04/25 05:47:09;;;;;;;22.02;5.45;;;5.80;99.90;;;-144.05;73.68;56948.66;5097215;28;20031;-83
2023/04/25 05:49:35;;;;;;;13.40;3.85;;;6.10;99.90;;;-144.05;73.11;56950.78;5097611;28;20024;-82
2023/04/25 05:52:01;;;;;;;12.75;4.53;;;6.10;99.90;;;-144.05;72.43;56921.06;5097439;28;20503;-83
2023/04/25 05:54:27;;;;;;;18.73;5.05;;;6.10;99.90;;;-144.05;71.80;56965.66;5096605;28;20026;-83
2023/04/25 05:56:53;;;;;;;15.32;5.65;;;6.20;99.90;;;-144.05;72.53;56942.28;5096518;28;20023;-82
2023/04/25 05:59:19;;;;;;;17.65;4.47;;;6.10;99.90;;;-144.05;72.41;56980.53;5096328;28;20035;-83
2023/04/25 06:01:45;;;;;;;16.25;5.38;;;6.10;99.90;;;-144.05;72.09;56929.53;5096494;28;20074;-83
2023/04/25 06:04:11;;;;;;;17.10;5.20;;;6.20;99.90;;;-144.05;72.13;56965.66;5096956;28;20519;-84
2023/04/25 06:06:37;;;;;;;13.20;4.55;;;6.20;99.90;;;-144.05;72.13;56952.91;5097141;28;20051;-83
2023/04/25 06:09:03;;;;;;;16.60;4.85;;;6.30;99.90;;;-144.05;72.58;56933.78;5096923;28;20050;-82
2023/04/25 06:11:29;;;;;;;10.45;4.55;;;6.40;99.90;;;-144.05;72.06;56938.03;5097642;28;20031;-80
2023/04/25 06:13:55;;;;;;;16.52;5.50;;;6.50;99.90;;;-144.05;71.58;56955.03;5096800;28;20031;-83
2023/04/25 06:16:21;;;;;;;16.15;5.20;;;6.60;99.90;;;-144.05;71.20;56942.28;5096693;28;20054;-84
2023/04/25 06:18:47;;;;;;;16.27;4.80;;;6.70;99.90;;;-144.05;71.01;56950.78;5097773;28;20096;-84
2023/04/25 06:21:13;;;;;;;15.90;4.78;;;6.70;99.90;;;-144.05;71.29;56955.03;5098348;28;20122;-82
2023/04/25 06:23:39;;;;;;;16.83;5.82;;;6.90;99.90;;;-144.05;70.59;56916.81;5097278;28;20138;-83
2023/04/25 06:26:12;;;;;;;20.27;5.40;;;6.90;99.90;;;-144.05;70.19;56925.28;5098483;28;20031;-81
2023/04/25 06:28:38;;;;;;;13.63;5.28;;;7.00;99.90;;;-144.05;69.23;56944.41;5082654;28;20040;-81
2023/04/25 06:31:04;;;;;;;12.90;5.20;;;7.00;99.90;;;-144.05;68.86;56929.53;5098509;28;20093;-83
2023/04/25 06:33:30;;;;;;;20.33;5.32;;;7.10;99.90;;;-144.05;68.91;56955.03;5097107;28;20055;-83
2023/04/25 06:35:56;;;;;;;21.25;6.95;;;7.10;99.90;;;-144.05;69.52;56950.78;5096400;28;20030;-83
2023/04/25 06:38:22;;;;;;;16.50;6.50;;;7.10;99.90;;;-144.05;68.93;56942.28;5096370;28;20030;-83
2023/04/25 06:40:48;;;;;;;12.10;5.32;;;7.00;99.90;;;-144.05;69.48;56940.16;5096218;28;20429;-81
2023/04/25 06:43:14;;;;;;;22.50;7.03;;;7.00;99.90;;;-144.05;69.37;56925.28;5095953;28;20024;-81
2023/04/25 06:45:40;;;;;;;20.27;6.78;;;7.20;99.90;;;-144.05;69.87;56959.28;5096611;28;20060;-81
2023/04/25 06:48:06;;;;;;;18.33;6.15;;;7.50;99.90;;;-144.05;67.92;56929.53;5115201;28;20103;-81
2023/04/25 06:50:33;;;;;;;18.42;6.03;;;7.90;99.90;;;-144.05;65.67;56923.19;5097537;28;20047;-82
2023/04/25 06:53:01;;;;;;;18.88;4.60;;;8.30;99.90;;;-144.05;63.31;56923.19;5097226;28;20023;-83
2023/04/25 06:55:27;;;;;;;21.10;5.55;;;8.50;99.90;;;-144.05;63.16;56931.66;5114873;28;20027;-83
2023/04/25 06:57:53;;;;;;;12.75;5.07;;;8.60;99.90;;;-144.05;62.60;56910.44;5097261;28;20027;-83
2023/04/25 07:00:20;;;;;;;15.30;4.40;;;8.90;99.90;;;-144.05;61.36;56899.81;5125839;28;20032;-85
2023/04/25 07:02:46;;;;;;;16.38;4.13;;;9.10;99.90;;;-144.05;59.28;56925.28;5112117;28;20036;-82
2023/04/25 07:05:12;;;;;;;18.38;4.88;;;9.10;99.90;;;-144.05;57.08;56910.44;5113597;28;20023;-82
2023/04/25 07:07:40;;;;;;;18.52;4.85;;;9.10;99.90;;;-144.05;57.04;56942.28;5095356;28;20111;-83
2023/04/25 07:10:06;;;;;;;17.08;4.85;;;9.10;99.90;;;-144.05;57.44;56918.94;5114082;28;20107;-81
2023/04/25 07:12:32;;;;;;;21.42;5.28;;;9.40;99.90;;;-144.05;55.42;56906.19;5095321;28;20114;-81
2023/04/25 07:14:58;;;;;;;18.95;5.55;;;9.60;99.90;;;-144.05;54.12;56910.44;5112458;28;20115;-82
2023/04/25 07:17:26;;;;;;;18.70;4.80;;;9.70;99.90;;;-144.05;54.14;56923.19;5114645;28;20368;-84
2023/04/25 07:19:52;;;;;;;14.15;4.63;;;9.60;99.90;;;-144.05;55.36;56921.06;5094718;28;20024;-85
2023/04/25 07:22:18;;;;;;;17.88;5.80;;;9.30;99.90;;;-144.05;55.77;56925.28;5094645;28;20100;-83
2023/04/25 07:24:48;;;;;;;12.90;4.75;;;9.10;99.90;;;-144.05;56.55;56959.28;5095193;28;20497;-84
2023/04/25 07:27:14;;;;;;;13.88;4.40;;;9.10;99.90;;;-144.05;56.95;56931.66;5094954;28;20027;-84
2023/04/25 07:29:42;;;;;;;18.60;5.18;;;8.80;99.90;;;-144.05;57.65;56929.53;5095569;28;20027;-82
2023/04/25 07:32:10;;;;;;;17.77;5.35;;;8.70;99.90;;;-144.05;56.63;56929.53;5095310;28;20032;-82
2023/04/25 07:34:38;;;;;;;14.00;5.05;;;8.50;99.90;;;-144.05;57.44;56931.66;5094994;28;20024;-82
2023/04/25 07:37:05;;;;;;;15.57;4.85;;;8.50;99.90;;;-144.05;57.39;56938.03;5111890;28;20027;-85
2023/04/25 07:39:31;;;;;;;14.50;5.18;;;8.70;99.90;;;-144.05;56.33;56927.41;5095345;28;20118;-82
2023/04/25 07:41:58;;;;;;;18.55;4.88;;;8.90;99.90;;;-144.05;55.31;56918.94;5095376;28;20032;-84
2023/04/25 07:44:30;;;;;;;13.93;4.25;;;8.90;99.90;;;-144.05;55.19;56925.28;5095182;28;20539;-82
2023/04/25 07:46:59;;;;;;;21.35;5.38;;;8.90;99.90;;;-144.05;53.88;56931.66;5095139;28;20078;-80
2023/04/25 07:49:27;;;;;;;18.27;4.35;;;8.90;99.90;;;-144.05;55.11;56935.91;5112149;28;20034;-82
2023/04/25 07:51:53;;;;;;;11.32;4.20;;;8.60;99.90;;;-144.05;55.38;56904.06;5095505;28;20023;-82
2023/04/25 07:54:21;;;;;;;10.70;3.85;;;8.70;99.90;;;-144.05;55.45;56938.03;5095628;28;20081;-83
2023/04/25 07:56:47;;;;;;;16.10;4.65;;;8.60;99.90;;;-144.05;55.89;56938.03;5112014;28;20035;-84
2023/04/25 07:59:13;;;;;;;19.02;4.30;;;8.40;99.90;;;-144.05;56.24;56925.28;5098952;28;20027;-84
2023/04/25 08:01:49;;;;;;;17.00;3.95;;;8.40;99.90;;;-144.05;54.66;56944.41;5099285;28;20123;-82
2023/04/25 08:04:16;;;;;;;12.15;3.75;;;8.50;99.90;;;-144.05;55.12;56952.91;5098836;28;20032;-84
2023/04/25 08:06:45;;;;;;;15.90;4.57;;;8.70;99.90;;;-144.05;55.36;56929.53;5097970;28;20106;-84
2023/04/25 08:09:33;;;;;;;;;;;;;;;;;;;;;
2023/04/25 08:12:14;;;;;;;14.35;4.15;;;9.00;99.90;;;-144.05;53.01;56923.19;5115610;28;20028;-82
2023/04/25 08:14:57;;;;;;;18.00;5.32;;;9.10;99.90;;;-144.05;53.23;56923.19;5097474;28;20503;-84
2023/04/25 08:17:34;;;;;;;;;;;;;;;;;;;;;
2023/04/25 08:20:00;;;;;;;19.40;2.92;;;9.30;99.90;;;-144.05;49.35;56933.78;5116217;28;20026;-84
2023/04/25 08:22:46;;;;;;;;;;;;;;;;;;;;;
2023/04/25 08:25:20;;;;;;;13.75;2.53;;;9.50;99.90;;;-144.05;48.20;56931.66;5115913;28;20031;-84
2023/04/25 08:27:50;;;;;;;12.05;2.88;;;10.00;99.90;;;-144.05;47.84;56923.19;5097616;28;20123;-83
2023/04/25 08:30:26;;;;;;;13.32;3.03;;;10.30;99.90;;;-144.05;46.92;56925.28;5097767;28;20084;-84
2023/04/25 08:32:55;;;;;;;20.27;3.33;;;10.30;99.90;;;-144.05;47.06;56946.53;5098333;28;20046;-83
2023/04/25 08:35:25;;;;;;;12.98;2.83;;;9.90;99.90;;;-144.05;47.17;56921.06;5098773;28;20475;-82
2023/04/25 08:38:04;;;;;;;12.65;2.50;;;9.80;99.90;;;-144.05;46.95;56923.19;5098372;28;20031;-84
2023/04/25 08:40:43;;;;;;;12.43;2.83;;;9.60;99.90;;;-144.05;46.60;56908.31;5098885;28;20111;-84
2023/04/25 08:43:15;;;;;;;14.35;3.25;;;9.80;99.90;;;-144.05;45.95;56933.78;5098489;28;20027;-83
2023/04/25 08:45:46;;;;;;;12.38;3.33;;;10.30;99.90;;;-144.05;43.55;56906.19;5102765;28;20065;-82
2023/04/25 08:48:26;;;;;;;;;;;;;;;;;;;;;
2023/04/25 08:51:11;;;;;;;;;;;;;;;;;;;;;
2023/04/25 08:53:48;;;;;;;8.77;2.75;;;11.40;99.90;;;-144.05;43.17;56927.41;5118020;28;20111;-84
2023/04/25 08:56:17;;;;;;;11.02;2.55;;;11.30;99.90;;;-144.05;42.89;56929.53;5099041;28;20031;-84
2023/04/25 08:59:00;;;;;;;;;;;;;;;;;;;;;
2023/04/25 09:02:11;;;;;;;;;;;;;;;;;;;;;
2023/04/25 09:04:47;;;;;;;13.95;3.17;;;10.50;99.90;;;-144.05;44.63;56935.91;5118229;28;20120;-84
2023/04/25 09:07:28;;;;;;;;;;;;;;;;;;;;;
2023/04/25 09:09:59;;;;;;;11.20;2.67;;;9.50;99.90;;;-144.05;46.87;56910.44;5122145;28;20100;-85
2023/04/25 09:12:41;;;;;;;15.52;2.92;;;9.60;99.90;;;-144.05;46.88;56912.56;5105633;28;20023;-86
2023/04/25 09:15:15;;;;;;;10.15;2.50;;;9.60;99.90;;;-144.05;44.71;56901.94;5104533;28;20100;-82
2023/04/25 09:17:44;;;;;;;12.82;2.88;;;10.20;99.90;;;-144.05;42.31;56935.91;5098690;28;20039;-82
2023/04/25 09:20:13;;;;;;;5.68;1.83;;;10.50;99.90;;;-144.05;42.07;56916.81;5099209;28;20054;-83
2023/04/25 09:22:42;;;;;;;8.52;2.67;;;10.60;99.90;;;-144.05;42.83;56910.44;5098132;28;20032;-84
2023/04/25 09:25:14;;;;;;;9.52;2.42;;;10.90;99.90;;;-144.05;40.67;56906.19;5098576;28;20174;-83
2023/04/25 09:28:00;;;;;;;11.90;2.42;;;11.30;99.90;;;-144.05;40.03;56931.66;5098914;28;20058;-84
2023/04/25 09:30:34;;;;;;;10.10;2.45;;;11.50;99.90;;;-144.05;40.21;56912.56;5099346;28;20028;-84
2023/04/25 09:33:09;;;;;;;6.75;2.67;;;11.30;99.90;;;-144.05;41.67;56933.78;5099505;28;20054;-84
2023/04/25 09:36:12;;;;;;;7.13;2.10;;;11.20;99.90;;;-144.05;40.62;56933.78;5114843;28;20160;-83
2023/04/25 09:38:54;;;;;;;13.52;2.17;;;10.90;99.90;;;-144.05;41.50;56933.78;5116107;28;20114;-84
2023/04/25 09:41:24;;;;;;;9.10;2.10;;;10.60;99.90;;;-144.05;41.58;56952.91;5117291;28;20098;-84
2023/04/25 09:43:56;;;;;;;10.95;2.72;;;10.20;99.90;;;-144.05;42.22;56931.66;5116400;28;20058;-83
2023/04/25 09:46:46;;;;;;;14.25;2.53;;;9.80;99.90;;;-144.05;42.85;56935.91;5097690;28;20031;-84
2023/04/25 09:49:40;;;;;;;;;;;;;;;;;;;;;
2023/04/25 09:52:06;;;;;;;14.35;2.92;;;9.30;99.90;;;-144.05;46.26;56933.78;5116940;28;20022;-82
2023/04/25 09:54:51;;;;;;;9.68;2.38;;;9.30;99.90;;;-144.05;45.70;56940.16;5097720;28;20028;-84
2023/04/25 09:57:28;;;;;;;9.00;2.28;;;9.40;99.90;;;-144.05;45.01;56946.53;5097425;28;20039;-82
2023/04/25 10:00:44;;;;;;;14.65;2.30;;;9.50;99.90;;;-144.05;45.51;56929.53;5095649;28;20060;-83
2023/04/25 10:03:17;;;;;;;8.50;2.20;;;9.60;99.90;;;-144.05;45.24;56946.53;5091154;28;20082;-87
2023/04/25 10:05:52;;;;;;;6.75;2.00;;;10.00;99.90;;;-144.05;43.36;56931.66;5099765;28;20032;-84
2023/04/25 10:08:29;;;;;;;11.20;1.97;;;10.20;99.90;;;-144.05;40.86;56884.94;5099110;28;20079;-83
2023/04/25 10:10:57;;;;;;;7.20;2.47;;;10.50;99.90;;;-144.05;40.41;56931.66;5115142;28;20119;-83
2023/04/25 10:13:31;;;;;;;6.88;1.92;;;11.40;99.90;;;-144.05;37.51;56918.94;5099619;28;20027;-82
2023/04/25 10:16:05;;;;;;;10.25;1.80;;;12.00;99.90;;;-144.05;35.25;56891.31;5099490;28;20475;-84
2023/04/25 10:18:33;;;;;;;4.32;1.27;;;12.60;99.90;;;-144.05;34.57;56899.81;5100628;28;20108;-83
2023/04/25 10:21:04;;;;;;;5.95;1.58;;;12.60;96.50;;;-144.05;33.70;56927.41;5099742;28;20020;-82
2023/04/25 10:23:34;;;;;;;5.53;1.67;;;12.60;93.20;;;-144.05;35.24;56935.91;5099438;28;20020;-84
2023/04/25 10:26:04;;;;;;;5.97;1.70;;;12.50;95.90;;;-144.05;33.49;56908.31;5099881;28;20190;-84